Time;durP1;ratioP1;P1;durP2;ratioP2;P2;SDS_P1;SDS_P2;PMS_P1;PMS_P2;Temp;Humidity;BMP_temperature;BMP_pressure;BME280_temperature;BME280_humidity;BME280_pressure;Samples;Min_cycle;Max_cycle;Signal;HPM_P1;HPM_P2
2022/05/28 00:02:07;;;;;;;2.70;2.60;;;;;;;;;;5075938;28;20463;-62
2022/05/28 00:04:33;;;;;;;3.67;3.50;;;;;;;;;;5075657;28;20410;-63
2022/05/28 00:06:59;;;;;;;3.10;3.10;;;;;;;;;;5075592;28;20772;-64
2022/05/28 00:09:25;;;;;;;3.30;3.00;;;;;;;;;;5074243;28;20418;-63
2022/05/28 00:11:51;;;;;;;2.97;2.77;;;;;;;;;;5075533;28;20513;-64
2022/05/28 00:14:17;;;;;;;2.63;2.53;;;;;;;;;;5074275;28;20413;-64
2022/05/28 00:16:46;;;;;;;3.47;3.17;;;;;;;;;;5075462;28;20410;-65
2022/05/28 00:19:12;;;;;;;12.83;2.77;;;;;;;;;;5075640;28;20475;-64
2022/05/28 00:21:38;;;;;;;3.50;3.20;;;;;;;;;;5074919;28;20842;-65
2022/05/28 00:24:04;;;;;;;2.90;2.70;;;;;;;;;;5074909;28;20406;-68
2022/05/28 00:26:30;;;;;;;3.10;2.90;;;;;;;;;;5075249;28;20465;-66
2022/05/28 00:28:56;;;;;;;2.80;2.60;;;;;;;;;;5075249;28;20409;-63
2022/05/28 00:31:22;;;;;;;3.10;2.93;;;;;;;;;;5075196;28;20769;-64
2022/05/28 00:33:48;;;;;;;3.50;3.40;;;;;;;;;;5075060;28;20414;-64
2022/05/28 00:36:15;;;;;;;3.10;3.00;;;;;;;;;;5075069;28;20410;-64
2022/05/28 00:38:42;;;;;;;2.90;2.80;;;;;;;;;;5074963;28;20429;-65
2022/05/28 00:41:09;;;;;;;3.07;2.83;;;;;;;;;;5074906;28;20426;-63
2022/05/28 00:43:35;;;;;;;3.90;3.57;;;;;;;;;;5074754;28;20465;-63
2022/05/28 00:46:04;;;;;;;2.50;2.40;;;;;;;;;;5074765;28;20466;-64
2022/05/28 00:48:33;;;;;;;4.13;3.60;;;;;;;;;;5074787;28;20551;-64
2022/05/28 00:51:05;;;;;;;3.60;2.90;;;;;;;;;;5074736;28;20463;-65
2022/05/28 00:53:32;;;;;;;3.33;3.23;;;;;;;;;;5074748;28;20413;-63
2022/05/28 00:55:58;;;;;;;3.47;3.30;;;;;;;;;;5074647;28;20429;-64
2022/05/28 00:58:24;;;;;;;3.30;3.03;;;;;;;;;;5074659;28;20448;-63
2022/05/28 01:00:50;;;;;;;3.27;3.17;;;;;;;;;;5074576;28;20480;-64
2022/05/28 01:03:34;;;;;;;3.90;3.33;;;;;;;;;;5074382;28;20417;-64
2022/05/28 01:06:11;;;;;;;4.27;3.30;;;;;;;;;;5074412;28;20488;-65
2022/05/28 01:08:56;;;;;;;3.23;3.03;;;;;;;;;;5074413;28;20900;-65
2022/05/28 01:11:36;;;;;;;3.30;3.13;;;;;;;;;;5073064;28;20413;-64
2022/05/28 01:14:18;;;;;;;3.33;3.27;;;;;;;;;;5074295;28;20437;-65
2022/05/28 01:16:50;;;;;;;5.13;3.43;;;;;;;;;;5074309;28;20410;-63
2022/05/28 01:19:22;;;;;;;3.70;3.57;;;;;;;;;;5074138;28;20844;-62
2022/05/28 01:21:51;;;;;;;3.40;3.30;;;;;;;;;;5074213;28;20441;-62
2022/05/28 01:24:20;;;;;;;3.43;3.33;;;;;;;;;;5074104;28;20908;-64
2022/05/28 01:26:58;;;;;;;3.10;3.00;;;;;;;;;;5074004;28;20523;-64
2022/05/28 01:29:27;;;;;;;3.30;3.20;;;;;;;;;;5074058;28;20406;-64
2022/05/28 01:31:54;;;;;;;4.10;3.47;;;;;;;;;;5074029;28;20725;-66
2022/05/28 01:34:21;;;;;;;3.27;3.17;;;;;;;;;;5073741;28;20826;-64
2022/05/28 01:36:48;;;;;;;3.50;3.40;;;;;;;;;;5073906;28;20394;-65
2022/05/28 01:39:15;;;;;;;4.53;4.00;;;;;;;;;;5074160;28;20402;-66
2022/05/28 01:41:41;;;;;;;4.23;3.97;;;;;;;;;;5073825;28;20406;-66
2022/05/28 01:44:08;;;;;;;4.10;3.90;;;;;;;;;;5073649;28;20557;-66
2022/05/28 01:46:35;;;;;;;4.60;4.40;;;;;;;;;;5073682;28;20549;-65
2022/05/28 01:49:01;;;;;;;4.00;3.70;;;;;;;;;;5073703;28;20406;-66
2022/05/28 01:51:29;;;;;;;4.13;3.73;;;;;;;;;;5073695;28;20479;-64
2022/05/28 01:54:09;;;;;;;3.97;3.77;;;;;;;;;;5072429;28;20438;-66
2022/05/28 01:56:36;;;;;;;3.40;3.20;;;;;;;;;;5073738;28;20409;-64
2022/05/28 01:59:02;;;;;;;4.23;4.10;;;;;;;;;;5073595;28;20438;-64
2022/05/28 02:01:28;;;;;;;4.37;4.27;;;;;;;;;;5073578;28;20402;-64
2022/05/28 02:03:57;;;;;;;4.50;3.57;;;;;;;;;;5073606;28;20505;-65
2022/05/28 02:06:24;;;;;;;4.13;3.73;;;;;;;;;;5073538;28;20519;-64
2022/05/28 02:08:50;;;;;;;4.00;3.70;;;;;;;;;;5073597;28;20406;-65
2022/05/28 02:11:19;;;;;;;5.23;4.83;;;;;;;;;;5073587;28;20842;-64
2022/05/28 02:13:44;;;;;;;4.10;3.90;;;;;;;;;;5073435;28;20504;-65
2022/05/28 02:16:15;;;;;;;4.70;4.40;;;;;;;;;;5073400;28;20916;-64
2022/05/28 02:18:49;;;;;;;3.63;3.43;;;;;;;;;;5073370;28;20410;-65
2022/05/28 02:21:24;;;;;;;3.50;3.13;;;;;;;;;;5073372;28;20433;-65
2022/05/28 02:23:56;;;;;;;3.03;2.90;;;;;;;;;;5073409;28;20410;-64
2022/05/28 02:26:43;;;;;;;2.97;2.77;;;;;;;;;;5071925;28;20560;-64
2022/05/28 02:29:09;;;;;;;3.43;3.13;;;;;;;;;;5073196;28;20394;-64
2022/05/28 02:31:35;;;;;;;5.43;3.50;;;;;;;;;;5073260;28;20892;-65
2022/05/28 02:34:01;;;;;;;3.37;3.27;;;;;;;;;;5073230;28;20409;-65
2022/05/28 02:36:27;;;;;;;3.70;3.60;;;;;;;;;;5071994;28;20912;-65
2022/05/28 02:38:54;;;;;;;3.63;3.53;;;;;;;;;;5073196;28;20417;-65
2022/05/28 02:41:21;;;;;;;3.67;3.47;;;;;;;;;;5073158;28;20865;-65
2022/05/28 02:43:47;;;;;;;5.43;3.30;;;;;;;;;;5071742;28;20462;-65
2022/05/28 02:46:13;;;;;;;3.27;3.07;;;;;;;;;;5075148;28;20469;-65
2022/05/28 02:48:40;;;;;;;4.57;4.20;;;;;;;;;;5077079;28;20413;-64
2022/05/28 02:51:07;;;;;;;3.87;3.47;;;;;;;;;;5077078;28;20436;-64
2022/05/28 02:53:33;;;;;;;2.90;2.80;;;;;;;;;;5077072;28;20413;-66
2022/05/28 02:55:59;;;;;;;3.40;3.10;;;;;;;;;;5076945;28;20406;-66
2022/05/28 02:58:26;;;;;;;3.30;3.10;;;;;;;;;;5076982;28;20405;-65
2022/05/28 03:00:52;;;;;;;3.63;3.20;;;;;;;;;;5076886;28;20497;-65
2022/05/28 03:03:19;;;;;;;3.10;2.90;;;;;;;;;;5076865;28;20501;-64
2022/05/28 03:05:47;;;;;;;3.73;3.50;;;;;;;;;;5076737;28;20468;-66
2022/05/28 03:08:13;;;;;;;3.30;3.00;;;;;;;;;;5076754;28;20448;-66
2022/05/28 03:10:39;;;;;;;3.47;3.37;;;;;;;;;;5076659;28;20453;-65
2022/05/28 03:13:06;;;;;;;3.60;3.40;;;;;;;;;;5075344;28;20426;-66
2022/05/28 03:15:32;;;;;;;4.27;3.97;;;;;;;;;;5076594;28;20787;-66
2022/05/28 03:17:59;;;;;;;3.50;3.40;;;;;;;;;;5076549;28;20411;-66
2022/05/28 03:20:26;;;;;;;3.63;3.33;;;;;;;;;;5076435;28;20402;-65
2022/05/28 03:22:52;;;;;;;4.03;3.83;;;;;;;;;;5076525;28;20409;-67
2022/05/28 03:25:18;;;;;;;4.10;4.00;;;;;;;;;;5076321;28;20506;-65
2022/05/28 03:27:44;;;;;;;3.73;3.53;;;;;;;;;;5076439;28;20774;-65
2022/05/28 03:30:10;;;;;;;3.60;3.40;;;;;;;;;;5076411;28;20398;-66
2022/05/28 03:32:36;;;;;;;3.53;3.43;;;;;;;;;;5074895;28;20771;-65
2022/05/28 03:35:02;;;;;;;3.40;3.30;;;;;;;;;;5074974;28;20909;-65
2022/05/28 03:37:28;;;;;;;4.10;3.80;;;;;;;;;;5076274;28;20509;-65
2022/05/28 03:39:54;;;;;;;4.13;3.83;;;;;;;;;;5076117;28;20574;-64
2022/05/28 03:42:20;;;;;;;4.43;4.23;;;;;;;;;;5076146;28;20453;-65
2022/05/28 03:44:46;;;;;;;4.90;3.53;;;;;;;;;;5076125;28;20410;-65
2022/05/28 03:47:13;;;;;;;3.60;3.40;;;;;;;;;;5076347;28;20417;-65
2022/05/28 03:49:39;;;;;;;6.93;3.80;;;;;;;;;;5075977;28;20413;-66
2022/05/28 03:52:06;;;;;;;3.33;3.10;;;;;;;;;;5076027;28;20471;-66
2022/05/28 03:54:32;;;;;;;9.27;3.70;;;;;;;;;;5075929;28;20410;-65
2022/05/28 03:57:00;;;;;;;3.67;3.50;;;;;;;;;;5074607;28;20410;-64
2022/05/28 03:59:26;;;;;;;3.57;3.47;;;;;;;;;;5075930;28;20501;-65
2022/05/28 04:01:53;;;;;;;3.80;3.70;;;;;;;;;;5076078;28;20445;-64
2022/05/28 04:04:19;;;;;;;5.40;3.90;;;;;;;;;;5075652;28;20433;-65
2022/05/28 04:06:45;;;;;;;3.87;3.47;;;;;;;;;;5075938;28;20568;-65
2022/05/28 04:09:11;;;;;;;3.43;3.20;;;;;;;;;;5074362;28;20468;-65
2022/05/28 04:11:38;;;;;;;4.57;4.40;;;;;;;;;;5075595;28;20564;-66
2022/05/28 04:14:04;;;;;;;4.13;3.93;;;;;;;;;;5075462;28;20416;-64
2022/05/28 04:16:31;;;;;;;4.23;3.93;;;;;;;;;;5075476;28;20906;-65
2022/05/28 04:18:57;;;;;;;6.10;4.40;;;;;;;;;;5075342;28;20954;-66
2022/05/28 04:21:23;;;;;;;5.33;4.70;;;;;;;;;;5075369;28;20414;-66
2022/05/28 04:23:49;;;;;;;4.33;4.17;;;;;;;;;;5075372;28;20876;-65
2022/05/28 04:26:15;;;;;;;3.93;3.70;;;;;;;;;;5073915;28;20531;-65
2022/05/28 04:28:41;;;;;;;7.03;3.90;;;;;;;;;;5073954;28;20836;-66
2022/05/28 04:31:07;;;;;;;6.50;4.63;;;;;;;;;;5075246;28;20410;-64
2022/05/28 04:33:33;;;;;;;5.00;4.60;;;;;;;;;;5075073;28;20445;-63
2022/05/28 04:35:59;;;;;;;5.43;4.93;;;;;;;;;;5075164;28;20766;-63
2022/05/28 04:38:25;;;;;;;6.23;4.80;;;;;;;;;;5073878;28;20458;-63
2022/05/28 04:40:51;;;;;;;4.40;4.10;;;;;;;;;;5074981;28;20471;-63
2022/05/28 04:43:18;;;;;;;8.10;4.13;;;;;;;;;;5073749;28;20477;-63
2022/05/28 04:45:45;;;;;;;4.70;4.30;;;;;;;;;;5074749;28;20460;-63
2022/05/28 04:48:11;;;;;;;5.67;3.80;;;;;;;;;;5074812;28;20422;-63
2022/05/28 04:50:37;;;;;;;9.37;4.10;;;;;;;;;;5074790;28;20869;-64
2022/05/28 04:53:04;;;;;;;6.40;4.00;;;;;;;;;;5074747;28;20422;-63
2022/05/28 04:55:30;;;;;;;6.63;4.10;;;;;;;;;;5073376;28;20437;-63
2022/05/28 04:57:57;;;;;;;5.43;4.03;;;;;;;;;;5073397;28;20418;-63
2022/05/28 05:00:24;;;;;;;8.77;4.00;;;;;;;;;;5074651;28;20428;-63
2022/05/28 05:02:50;;;;;;;10.63;3.50;;;;;;;;;;5074499;28;20409;-66
2022/05/28 05:05:16;;;;;;;11.33;4.30;;;;;;;;;;5074439;28;20479;-65
2022/05/28 05:07:42;;;;;;;7.97;3.13;;;;;;;;;;5074314;28;20422;-64
2022/05/28 05:10:09;;;;;;;6.10;3.40;;;;;;;;;;5074202;28;20408;-66
2022/05/28 05:12:35;;;;;;;5.43;3.23;;;;;;;;;;5074309;28;20406;-67
2022/05/28 05:15:01;;;;;;;8.53;3.37;;;;;;;;;;5074308;28;20448;-66
2022/05/28 05:17:27;;;;;;;6.90;3.50;;;;;;;;;;5074223;28;20923;-63
2022/05/28 05:19:53;;;;;;;6.17;3.20;;;;;;;;;;5074212;28;20434;-64
2022/05/28 05:22:19;;;;;;;7.87;3.40;;;;;;;;;;5074187;28;20398;-64
2022/05/28 05:24:45;;;;;;;7.03;3.10;;;;;;;;;;5074032;28;20401;-63
2022/05/28 05:27:11;;;;;;;6.67;3.40;;;;;;;;;;5074172;28;20410;-64
2022/05/28 05:29:38;;;;;;;11.13;4.70;;;;;;;;;;5073955;28;20403;-68
2022/05/28 05:32:04;;;;;;;7.00;3.70;;;;;;;;;;5073958;28;20501;-65
2022/05/28 05:34:30;;;;;;;7.93;2.60;;;;;;;;;;5073930;28;20399;-67
2022/05/28 05:36:56;;;;;;;8.83;4.27;;;;;;;;;;5073905;28;20402;-67
2022/05/28 05:39:22;;;;;;;8.10;3.20;;;;;;;;;;5073979;28;20402;-65
2022/05/28 05:41:48;;;;;;;4.93;2.87;;;;;;;;;;5073775;28;20503;-67
2022/05/28 05:44:14;;;;;;;13.33;3.57;;;;;;;;;;5073745;28;20466;-67
2022/05/28 05:46:40;;;;;;;6.53;3.27;;;;;;;;;;5073706;28;20508;-65
2022/05/28 05:49:08;;;;;;;7.60;3.17;;;;;;;;;;5073941;28;20522;-67
2022/05/28 05:51:36;;;;;;;5.40;3.00;;;;;;;;;;5073744;28;20406;-67
2022/05/28 05:54:02;;;;;;;5.13;2.90;;;;;;;;;;5073645;28;20506;-65
2022/05/28 05:56:28;;;;;;;7.03;3.63;;;;;;;;;;5073659;28;20430;-67
2022/05/28 05:58:54;;;;;;;7.83;3.37;;;;;;;;;;5073639;28;20410;-67
2022/05/28 06:01:20;;;;;;;5.93;3.00;;;;;;;;;;5073645;28;20441;-67
2022/05/28 06:03:46;;;;;;;8.27;2.90;;;;;;;;;;5073529;28;20961;-64
2022/05/28 06:06:14;;;;;;;8.33;3.23;;;;;;;;;;5073408;28;20469;-66
2022/05/28 06:08:40;;;;;;;10.23;3.47;;;;;;;;;;5073510;28;20417;-66
2022/05/28 06:11:06;;;;;;;7.80;3.67;;;;;;;;;;5073540;28;20407;-66
2022/05/28 06:13:32;;;;;;;14.00;3.57;;;;;;;;;;5073515;28;20447;-66
2022/05/28 06:15:58;;;;;;;8.33;2.90;;;;;;;;;;5073915;28;20735;-66
2022/05/28 06:18:24;;;;;;;20.50;3.00;;;;;;;;;;5073398;28;20421;-67
2022/05/28 06:20:50;;;;;;;7.00;3.00;;;;;;;;;;5072597;28;20436;-67
2022/05/28 06:23:17;;;;;;;11.83;3.83;;;;;;;;;;5073438;28;20406;-64
2022/05/28 06:25:43;;;;;;;18.70;4.00;;;;;;;;;;5072009;28;20469;-65
2022/05/28 06:28:09;;;;;;;8.60;3.20;;;;;;;;;;5073368;28;20399;-64
2022/05/28 06:30:35;;;;;;;7.20;3.37;;;;;;;;;;5073389;28;20438;-63
2022/05/28 06:33:01;;;;;;;7.50;3.90;;;;;;;;;;5073114;28;20419;-64
2022/05/28 06:35:29;;;;;;;11.47;3.37;;;;;;;;;;5073315;28;20414;-66
2022/05/28 06:37:55;;;;;;;13.83;6.43;;;;;;;;;;5073235;28;20413;-65
2022/05/28 06:40:21;;;;;;;5.47;3.27;;;;;;;;;;5073211;28;20779;-66
2022/05/28 06:42:49;;;;;;;14.83;3.80;;;;;;;;;;5071766;28;20558;-67
2022/05/28 06:45:15;;;;;;;15.03;3.60;;;;;;;;;;5073031;28;20455;-68
2022/05/28 06:47:42;;;;;;;8.23;3.07;;;;;;;;;;5072888;28;20457;-66
2022/05/28 06:52:53;;;;;;;5.43;3.27;;;;;;;;;;5073293;28;20410;-66
2022/05/28 06:55:19;;;;;;;4.63;2.43;;;;;;;;;;5072876;28;20398;-62
2022/05/28 06:57:45;;;;;;;9.67;3.30;;;;;;;;;;5073107;28;20427;-64
2022/05/28 07:00:12;;;;;;;6.73;2.77;;;;;;;;;;5073050;28;20400;-64
2022/05/28 07:02:38;;;;;;;6.63;3.27;;;;;;;;;;5072937;28;20415;-62
2022/05/28 07:05:04;;;;;;;10.30;2.53;;;;;;;;;;5071563;28;20407;-63
2022/05/28 07:07:30;;;;;;;4.60;2.77;;;;;;;;;;5073023;28;20431;-61
2022/05/28 07:09:56;;;;;;;9.30;2.97;;;;;;;;;;5073122;28;20506;-63
2022/05/28 07:12:22;;;;;;;14.90;3.37;;;;;;;;;;5072957;28;20429;-67
2022/05/28 07:14:48;;;;;;;13.37;3.27;;;;;;;;;;5072919;28;20500;-64
2022/05/28 07:17:14;;;;;;;6.93;2.70;;;;;;;;;;5072825;28;20797;-67
2022/05/28 07:19:41;;;;;;;8.23;2.77;;;;;;;;;;5072830;28;20416;-63
2022/05/28 07:22:07;;;;;;;12.10;2.83;;;;;;;;;;5072751;28;20412;-66
2022/05/28 07:24:33;;;;;;;22.60;3.20;;;;;;;;;;5072832;28;20879;-66
2022/05/28 07:26:59;;;;;;;9.60;2.80;;;;;;;;;;5072742;28;20467;-63
2022/05/28 07:29:25;;;;;;;9.00;3.17;;;;;;;;;;5072780;28;20483;-66
2022/05/28 07:31:51;;;;;;;14.33;3.13;;;;;;;;;;5074173;28;20443;-66
2022/05/28 07:34:17;;;;;;;4.47;2.30;;;;;;;;;;5076270;28;20412;-66
2022/05/28 07:36:43;;;;;;;5.10;2.63;;;;;;;;;;5076248;28;20412;-63
2022/05/28 07:39:09;;;;;;;5.43;2.57;;;;;;;;;;5076048;28;20767;-63
2022/05/28 07:41:36;;;;;;;4.13;2.20;;;;;;;;;;5075925;28;20444;-65
2022/05/28 07:44:03;;;;;;;6.77;2.50;;;;;;;;;;5075865;28;20467;-65
2022/05/28 07:46:31;;;;;;;7.53;2.30;;;;;;;;;;5076058;28;20471;-63
2022/05/28 07:48:58;;;;;;;9.70;2.40;;;;;;;;;;5076078;28;20446;-63
2022/05/28 07:51:24;;;;;;;4.77;2.80;;;;;;;;;;5074711;28;20425;-65
2022/05/28 07:53:50;;;;;;;19.53;3.30;;;;;;;;;;5075867;28;20421;-64
2022/05/28 07:56:16;;;;;;;4.33;2.50;;;;;;;;;;5075919;28;20511;-66
2022/05/28 07:58:42;;;;;;;9.10;2.90;;;;;;;;;;5075838;28;20772;-66
2022/05/28 08:01:17;;;;;;;5.73;2.40;;;;;;;;;;5075763;28;20419;-65
2022/05/28 08:03:43;;;;;;;4.17;2.37;;;;;;;;;;5075700;28;20493;-62
2022/05/28 08:06:09;;;;;;;8.77;2.90;;;;;;;;;;5075751;28;20904;-62
2022/05/28 08:08:35;;;;;;;10.13;2.20;;;;;;;;;;5075777;28;20504;-63
2022/05/28 08:11:02;;;;;;;2.17;1.40;;;;;;;;;;5075718;28;20417;-62
2022/05/28 08:13:28;;;;;;;7.80;1.80;;;;;;;;;;5075582;28;20519;-64
2022/05/28 08:15:55;;;;;;;3.13;2.20;;;;;;;;;;5075671;28;20509;-62
2022/05/28 08:18:23;;;;;;;6.57;2.57;;;;;;;;;;5075755;28;20413;-62
2022/05/28 08:23:35;;;;;;;4.20;1.90;;;;;;;;;;5075771;28;20436;-63
2022/05/28 08:26:01;;;;;;;4.43;2.13;;;;;;;;;;5073977;28;20472;-63
2022/05/28 08:28:27;;;;;;;8.60;2.20;;;;;;;;;;5075237;28;20410;-64
2022/05/28 08:30:53;;;;;;;3.87;1.90;;;;;;;;;;5075203;28;20410;-63
2022/05/28 08:33:20;;;;;;;5.20;2.47;;;;;;;;;;5075110;28;20414;-65
2022/05/28 08:35:46;;;;;;;7.80;2.57;;;;;;;;;;5075056;28;20413;-64
2022/05/28 08:38:15;;;;;;;6.67;2.57;;;;;;;;;;5075433;28;20417;-62
2022/05/28 08:40:44;;;;;;;3.97;2.07;;;;;;;;;;5075109;28;20888;-64
2022/05/28 08:43:10;;;;;;;6.13;2.00;;;;;;;;;;5074148;28;20455;-65
2022/05/28 08:45:36;;;;;;;7.10;2.30;;;;;;;;;;5075037;28;20454;-62
2022/05/28 08:48:03;;;;;;;3.70;1.53;;;;;;;;;;5073506;28;20522;-67
2022/05/28 08:50:30;;;;;;;7.47;1.80;;;;;;;;;;5073700;28;20422;-63
2022/05/28 08:53:03;;;;;;;2.27;1.70;;;;;;;;;;5073518;28;20441;-63
2022/05/28 08:55:29;;;;;;;2.33;1.80;;;;;;;;;;5073953;28;20407;-63
2022/05/28 08:58:01;;;;;;;7.50;2.20;;;;;;;;;;5073761;28;20881;-67
2022/05/28 09:00:39;;;;;;;3.07;1.77;;;;;;;;;;5074376;28;20410;-66
2022/05/28 09:03:13;;;;;;;2.87;1.73;;;;;;;;;;5074633;28;20415;-62
2022/05/28 09:05:45;;;;;;;8.03;1.90;;;;;;;;;;5074289;28;20506;-65
2022/05/28 09:08:11;;;;;;;4.30;1.80;;;;;;;;;;5074373;28;20450;-62
2022/05/28 09:10:48;;;;;;;6.27;1.97;;;;;;;;;;5074157;28;20452;-63
2022/05/28 09:13:27;;;;;;;4.30;1.80;;;;;;;;;;5073881;28;20410;-63
2022/05/28 09:15:55;;;;;;;4.37;1.50;;;;;;;;;;5074173;28;20830;-63
2022/05/28 09:18:21;;;;;;;4.83;1.20;;;;;;;;;;5074384;28;20464;-64
2022/05/28 09:20:48;;;;;;;3.43;1.97;;;;;;;;;;5074352;28;20405;-63
2022/05/28 09:23:14;;;;;;;2.40;1.80;;;;;;;;;;5074082;28;20443;-62
2022/05/28 09:25:43;;;;;;;5.03;1.73;;;;;;;;;;5073740;28;20530;-65
2022/05/28 09:28:22;;;;;;;4.10;1.60;;;;;;;;;;5073424;28;20398;-62
2022/05/28 09:31:06;;;;;;;1.90;0.90;;;;;;;;;;5073538;28;20398;-63
2022/05/28 09:33:33;;;;;;;7.03;1.10;;;;;;;;;;5073852;28;20423;-62
2022/05/28 09:35:59;;;;;;;8.23;1.20;;;;;;;;;;5073590;28;20452;-63
2022/05/28 09:38:38;;;;;;;3.10;1.30;;;;;;;;;;5073749;28;20415;-66
2022/05/28 09:41:19;;;;;;;5.40;1.00;;;;;;;;;;5072515;28;20525;-65
2022/05/28 09:44:05;;;;;;;2.00;1.07;;;;;;;;;;5072445;28;20478;-64
2022/05/28 09:46:31;;;;;;;2.87;1.27;;;;;;;;;;5073675;28;20579;-64
2022/05/28 09:49:00;;;;;;;12.43;1.20;;;;;;;;;;5073643;28;20953;-63
2022/05/28 09:51:28;;;;;;;5.60;1.00;;;;;;;;;;5073703;28;20483;-63
2022/05/28 09:54:16;;;;;;;5.97;1.47;;;;;;;;;;5073686;28;20411;-65
2022/05/28 09:56:43;;;;;;;3.50;1.23;;;;;;;;;;5073644;28;20404;-62
2022/05/28 09:59:21;;;;;;;3.43;0.90;;;;;;;;;;5072335;28;20431;-64
2022/05/28 10:01:58;;;;;;;4.47;1.20;;;;;;;;;;5073568;28;20782;-63
2022/05/28 10:04:31;;;;;;;1.57;0.97;;;;;;;;;;5073601;28;20432;-63
2022/05/28 10:07:02;;;;;;;1.50;1.40;;;;;;;;;;5073440;28;20478;-63
2022/05/28 10:09:29;;;;;;;1.37;1.27;;;;;;;;;;5073502;28;20446;-63
2022/05/28 10:11:57;;;;;;;2.43;1.17;;;;;;;;;;5073762;28;20415;-63
2022/05/28 10:14:24;;;;;;;4.10;1.10;;;;;;;;;;5073591;28;20419;-64
2022/05/28 10:16:54;;;;;;;1.47;1.20;;;;;;;;;;5072176;28;20489;-63
2022/05/28 10:19:26;;;;;;;1.83;1.30;;;;;;;;;;5073360;28;20477;-67
2022/05/28 10:21:54;;;;;;;5.57;1.47;;;;;;;;;;5073357;28;20405;-68
2022/05/28 10:24:22;;;;;;;2.73;1.30;;;;;;;;;;5073242;28;20887;-68
2022/05/28 10:26:56;;;;;;;2.60;1.10;;;;;;;;;;5072264;28;20472;-69
2022/05/28 10:29:38;;;;;;;1.53;1.17;;;;;;;;;;5073290;28;20411;-69
2022/05/28 10:32:15;;;;;;;0.97;0.97;;;;;;;;;;5073426;28;20405;-65
2022/05/28 10:34:41;;;;;;;2.60;1.50;;;;;;;;;;5073200;28;20420;-64
2022/05/28 10:37:07;;;;;;;1.20;1.00;;;;;;;;;;5073239;28;20408;-64
2022/05/28 10:39:33;;;;;;;1.83;0.87;;;;;;;;;;5073250;28;20404;-67
2022/05/28 10:41:59;;;;;;;5.97;1.00;;;;;;;;;;5072984;28;20411;-65
2022/05/28 10:44:25;;;;;;;1.43;1.30;;;;;;;;;;5071926;28;20434;-66
2022/05/28 10:46:57;;;;;;;5.30;1.07;;;;;;;;;;5071754;28;20484;-64
2022/05/28 10:49:42;;;;;;;1.20;1.10;;;;;;;;;;5073072;28;20848;-64
2022/05/28 10:52:20;;;;;;;3.00;1.30;;;;;;;;;;5072884;28;20496;-64
2022/05/28 10:55:03;;;;;;;4.57;1.20;;;;;;;;;;5073038;28;20408;-65
2022/05/28 10:57:29;;;;;;;0.90;0.90;;;;;;;;;;5071661;28;20468;-65
2022/05/28 11:00:01;;;;;;;1.80;1.00;;;;;;;;;;5071770;28;20440;-66
2022/05/28 11:02:42;;;;;;;1.47;0.80;;;;;;;;;;5072888;28;20474;-65
2022/05/28 11:05:37;;;;;;;3.33;1.10;;;;;;;;;;5073155;28;20416;-65
2022/05/28 11:08:13;;;;;;;4.93;1.17;;;;;;;;;;5076252;28;20432;-65
2022/05/28 11:10:55;;;;;;;1.07;0.97;;;;;;;;;;5076665;28;20414;-65
2022/05/28 11:13:27;;;;;;;1.60;1.30;;;;;;;;;;5076700;28;20500;-66
2022/05/28 11:16:12;;;;;;;1.13;1.10;;;;;;;;;;5076676;28;20408;-65
2022/05/28 11:18:54;;;;;;;2.20;1.47;;;;;;;;;;5076517;28;20432;-65
2022/05/28 11:21:23;;;;;;;4.20;1.30;;;;;;;;;;5076518;28;20405;-66
2022/05/28 11:24:01;;;;;;;2.23;1.27;;;;;;;;;;5076504;28;20475;-67
2022/05/28 11:26:36;;;;;;;3.13;1.50;;;;;;;;;;5076346;28;20545;-64
2022/05/28 11:29:20;;;;;;;1.97;1.13;;;;;;;;;;5076402;28;20399;-64
2022/05/28 11:31:52;;;;;;;3.40;1.47;;;;;;;;;;5076353;28;20916;-66
2022/05/28 11:34:25;;;;;;;2.63;2.43;;;;;;;;;;5076377;28;20402;-65
2022/05/28 11:36:57;;;;;;;1.00;1.00;;;;;;;;;;5074953;28;20792;-65
2022/05/28 11:39:32;;;;;;;1.47;1.23;;;;;;;;;;5076221;28;20409;-64
2022/05/28 11:42:17;;;;;;;3.13;1.07;;;;;;;;;;5076130;28;20416;-65
2022/05/28 11:44:54;;;;;;;1.23;1.10;;;;;;;;;;5076236;28;20893;-65
2022/05/28 11:47:26;;;;;;;5.03;1.33;;;;;;;;;;5075937;28;20955;-65
2022/05/28 11:52:50;;;;;;;9.23;8.07;;;;;;;;;;5076247;28;20447;-66
2022/05/28 11:55:21;;;;;;;2.37;1.03;;;;;;;;;;5074674;28;20429;-66
2022/05/28 11:57:49;;;;;;;1.47;1.10;;;;;;;;;;5075818;28;20425;-65
2022/05/28 12:00:17;;;;;;;1.93;1.10;;;;;;;;;;5074918;28;20839;-66
2022/05/28 12:02:54;;;;;;;3.50;1.10;;;;;;;;;;5075710;28;20437;-66
2022/05/28 12:05:21;;;;;;;1.37;1.23;;;;;;;;;;5074384;28;20424;-65
2022/05/28 12:07:53;;;;;;;2.50;1.20;;;;;;;;;;5075710;28;20425;-65
2022/05/28 12:10:48;;;;;;;1.57;1.47;;;;;;;;;;5075635;28;20396;-67
2022/05/28 12:13:50;;;;;;;5.20;1.10;;;;;;;;;;5038510;28;20828;-66
2022/05/28 12:16:19;;;;;;;3.07;1.50;;;;;;;;;;5013668;28;20458;-66
2022/05/28 12:18:55;;;;;;;2.70;1.23;;;;;;;;;;5063395;28;20444;-66
2022/05/28 12:21:26;;;;;;;10.87;1.17;;;;;;;;;;5075453;28;20802;-66
2022/05/28 12:24:03;;;;;;;1.93;1.47;;;;;;;;;;5075448;28;20404;-66
2022/05/28 12:29:37;;;;;;;2.10;1.23;;;;;;;;;;5075645;28;20437;-68
2022/05/28 12:32:10;;;;;;;2.53;1.43;;;;;;;;;;5075271;28;20881;-67
2022/05/28 12:34:37;;;;;;;1.27;1.17;;;;;;;;;;5073862;28;20429;-66
2022/05/28 12:37:04;;;;;;;3.47;1.23;;;;;;;;;;5075186;28;20415;-66
2022/05/28 12:39:39;;;;;;;1.60;1.30;;;;;;;;;;5075129;28;20493;-67
2022/05/28 12:42:18;;;;;;;1.90;1.20;;;;;;;;;;5073623;28;20545;-67
2022/05/28 12:44:49;;;;;;;2.10;1.20;;;;;;;;;;5075088;28;20415;-67
2022/05/28 12:47:23;;;;;;;2.00;1.17;;;;;;;;;;5074830;28;20473;-67
2022/05/28 12:49:56;;;;;;;1.20;1.00;;;;;;;;;;5074738;28;20466;-67
2022/05/28 12:52:40;;;;;;;2.77;1.20;;;;;;;;;;5073455;28;20977;-66
2022/05/28 12:55:13;;;;;;;2.23;0.73;;;;;;;;;;5073525;28;20423;-66
2022/05/28 12:57:39;;;;;;;1.73;1.20;;;;;;;;;;5074677;28;20411;-66
2022/05/28 13:00:05;;;;;;;1.57;1.43;;;;;;;;;;5074642;28;20415;-67
2022/05/28 13:02:34;;;;;;;2.70;1.30;;;;;;;;;;5074589;28;20896;-66
2022/05/28 13:05:06;;;;;;;2.23;1.10;;;;;;;;;;5074617;28;20805;-66
2022/05/28 13:07:41;;;;;;;1.40;1.30;;;;;;;;;;5074550;28;20432;-67
2022/05/28 13:10:16;;;;;;;1.73;1.40;;;;;;;;;;5074397;28;20410;-67
2022/05/28 13:12:57;;;;;;;3.10;1.13;;;;;;;;;;5074322;28;20424;-67
2022/05/28 13:15:42;;;;;;;1.23;0.80;;;;;;;;;;5074406;28;20486;-67
2022/05/28 13:18:27;;;;;;;7.17;1.20;;;;;;;;;;5074225;28;20505;-67
2022/05/28 13:20:59;;;;;;;2.00;0.80;;;;;;;;;;5074275;28;20413;-68
2022/05/28 13:23:51;;;;;;;1.63;0.80;;;;;;;;;;5074186;28;20421;-67
2022/05/28 13:26:17;;;;;;;3.20;1.20;;;;;;;;;;5072015;28;21010;-66
2022/05/28 13:29:02;;;;;;;1.80;0.70;;;;;;;;;;5074105;28;20426;-66
2022/05/28 13:31:30;;;;;;;1.27;0.90;;;;;;;;;;5073992;28;20409;-65
2022/05/28 13:33:56;;;;;;;1.17;0.80;;;;;;;;;;5074035;28;20900;-66
2022/05/28 13:36:22;;;;;;;2.30;0.97;;;;;;;;;;5073888;28;20415;-66
2022/05/28 13:38:51;;;;;;;2.90;1.10;;;;;;;;;;5073908;28;20416;-66
2022/05/28 13:41:20;;;;;;;1.50;1.50;;;;;;;;;;5073883;28;20440;-66
2022/05/28 13:43:51;;;;;;;5.60;5.27;;;;;;;;;;5073771;28;20463;-66
2022/05/28 13:46:17;;;;;;;2.07;1.10;;;;;;;;;;5073718;28;20509;-66
2022/05/28 13:48:57;;;;;;;0.80;0.80;;;;;;;;;;5073691;28;20417;-66
2022/05/28 13:51:24;;;;;;;1.97;0.93;;;;;;;;;;5073704;28;20431;-65
2022/05/28 13:54:01;;;;;;;2.77;0.90;;;;;;;;;;5073702;28;20412;-67
2022/05/28 13:56:28;;;;;;;1.27;0.87;;;;;;;;;;5073844;28;20400;-67
2022/05/28 13:58:55;;;;;;;1.20;0.80;;;;;;;;;;5073641;28;20407;-66
2022/05/28 14:01:31;;;;;;;1.70;1.10;;;;;;;;;;5072401;28;20464;-66
2022/05/28 14:04:08;;;;;;;1.00;1.00;;;;;;;;;;5073533;28;20414;-67
2022/05/28 14:06:36;;;;;;;4.90;1.53;;;;;;;;;;5073464;28;20525;-68
2022/05/28 14:09:04;;;;;;;2.13;1.00;;;;;;;;;;5073485;28;20435;-67
2022/05/28 14:11:30;;;;;;;0.90;0.90;;;;;;;;;;5073536;28;20410;-68
2022/05/28 14:13:58;;;;;;;1.40;1.07;;;;;;;;;;5073589;28;20504;-67
2022/05/28 14:16:24;;;;;;;3.57;1.10;;;;;;;;;;5073469;28;20516;-68
2022/05/28 14:18:51;;;;;;;2.23;1.07;;;;;;;;;;5073439;28;20424;-66
2022/05/28 14:21:20;;;;;;;2.53;0.80;;;;;;;;;;5073413;28;20749;-65
2022/05/28 14:23:47;;;;;;;2.73;1.07;;;;;;;;;;5073322;28;20416;-65
2022/05/28 14:26:14;;;;;;;1.83;1.73;;;;;;;;;;5073267;28;20559;-65
2022/05/28 14:28:41;;;;;;;7.30;5.33;;;;;;;;;;5073227;28;20453;-66
2022/05/28 14:31:07;;;;;;;2.37;1.40;;;;;;;;;;5073158;28;20403;-64
2022/05/28 14:33:37;;;;;;;2.30;1.00;;;;;;;;;;5073201;28;20412;-66
2022/05/28 14:36:11;;;;;;;2.70;2.50;;;;;;;;;;5073223;28;20417;-65
2022/05/28 14:38:37;;;;;;;3.73;0.90;;;;;;;;;;5073153;28;20408;-66
2022/05/28 14:41:09;;;;;;;3.50;1.17;;;;;;;;;;5073342;28;20753;-65
2022/05/28 14:43:35;;;;;;;1.80;1.10;;;;;;;;;;5077210;28;20467;-64
2022/05/28 14:46:25;;;;;;;3.87;1.40;;;;;;;;;;5077253;28;20463;-65
2022/05/28 14:49:04;;;;;;;3.87;1.10;;;;;;;;;;5077149;28;20419;-68
2022/05/28 14:51:34;;;;;;;1.20;1.07;;;;;;;;;;5077142;28;20747;-66
2022/05/28 14:54:00;;;;;;;1.70;1.10;;;;;;;;;;5077323;28;20412;-65
2022/05/28 14:56:31;;;;;;;0.83;0.83;;;;;;;;;;5077154;28;20406;-66
2022/05/28 14:58:57;;;;;;;1.83;1.20;;;;;;;;;;5077063;28;20392;-65
2022/05/28 15:01:34;;;;;;;1.37;1.20;;;;;;;;;;5076960;28;20880;-65
2022/05/28 15:04:10;;;;;;;0.80;0.73;;;;;;;;;;5077182;28;20756;-65
2022/05/28 15:06:44;;;;;;;1.03;1.03;;;;;;;;;;5076812;28;20544;-65
2022/05/28 15:09:18;;;;;;;1.03;1.00;;;;;;;;;;5076823;28;20882;-66